sensor_id;sensor_type;location;lat;lon;timestamp;temperature;humidity
37788;DHT22;23627;53.302;-6.362;2022-08-01T00:01:52;15.90;99.90
37788;DHT22;23627;53.302;-6.362;2022-08-01T00:04:17;15.90;99.90
37788;DHT22;23627;53.302;-6.362;2022-08-01T00:06:43;15.90;99.90
37788;DHT22;23627;53.302;-6.362;2022-08-01T00:09:09;15.80;99.90
37788;DHT22;23627;53.302;-6.362;2022-08-01T00:11:35;15.80;99.90
37788;DHT22;23627;53.302;-6.362;2022-08-01T00:14:01;15.80;99.90
37788;DHT22;23627;53.302;-6.362;2022-08-01T00:16:26;15.70;99.90
37788;DHT22;23627;53.302;-6.362;2022-08-01T00:18:52;15.70;99.90
37788;DHT22;23627;53.302;-6.362;2022-08-01T00:21:18;15.70;99.90
37788;DHT22;23627;53.302;-6.362;2022-08-01T00:23:44;15.70;99.90
37788;DHT22;23627;53.302;-6.362;2022-08-01T00:26:12;15.70;99.90
37788;DHT22;23627;53.302;-6.362;2022-08-01T00:28:38;15.70;99.90
37788;DHT22;23627;53.302;-6.362;2022-08-01T00:31:04;15.60;99.90
37788;DHT22;23627;53.302;-6.362;2022-08-01T00:33:30;15.60;99.90
37788;DHT22;23627;53.302;-6.362;2022-08-01T00:35:56;15.60;99.90
37788;DHT22;23627;53.302;-6.362;2022-08-01T00:38:21;15.50;99.90
37788;DHT22;23627;53.302;-6.362;2022-08-01T00:40:47;15.50;99.90
37788;DHT22;23627;53.302;-6.362;2022-08-01T00:43:14;15.50;99.90
37788;DHT22;23627;53.302;-6.362;2022-08-01T00:45:39;15.50;99.90
37788;DHT22;23627;53.302;-6.362;2022-08-01T00:48:05;15.50;99.90
37788;DHT22;23627;53.302;-6.362;2022-08-01T00:50:31;15.40;99.90
37788;DHT22;23627;53.302;-6.362;2022-08-01T00:52:58;15.40;99.90
37788;DHT22;23627;53.302;-6.362;2022-08-01T00:55:25;15.40;99.90
37788;DHT22;23627;53.302;-6.362;2022-08-01T00:57:51;15.40;99.90
37788;DHT22;23627;53.302;-6.362;2022-08-01T01:00:17;15.30;99.90
37788;DHT22;23627;53.302;-6.362;2022-08-01T01:02:43;15.30;99.90
37788;DHT22;23627;53.302;-6.362;2022-08-01T01:05:09;15.30;99.90
37788;DHT22;23627;53.302;-6.362;2022-08-01T01:08:07;15.30;99.90
37788;DHT22;23627;53.302;-6.362;2022-08-01T01:10:44;15.20;99.90
37788;DHT22;23627;53.302;-6.362;2022-08-01T01:15:59;15.20;99.90
37788;DHT22;23627;53.302;-6.362;2022-08-01T01:18:32;15.20;99.90
37788;DHT22;23627;53.302;-6.362;2022-08-01T01:21:09;15.20;99.90
37788;DHT22;23627;53.302;-6.362;2022-08-01T01:27:06;15.10;99.90
37788;DHT22;23627;53.302;-6.362;2022-08-01T01:29:40;15.10;99.90
37788;DHT22;23627;53.302;-6.362;2022-08-01T01:32:13;15.10;99.90
37788;DHT22;23627;53.302;-6.362;2022-08-01T01:34:40;15.10;99.90
37788;DHT22;23627;53.302;-6.362;2022-08-01T01:37:09;15.10;99.90
37788;DHT22;23627;53.302;-6.362;2022-08-01T01:39:37;15.10;99.90
37788;DHT22;23627;53.302;-6.362;2022-08-01T01:42:06;15.00;99.90
37788;DHT22;23627;53.302;-6.362;2022-08-01T01:44:32;15.00;99.90
37788;DHT22;23627;53.302;-6.362;2022-08-01T01:47:00;15.00;99.90
37788;DHT22;23627;53.302;-6.362;2022-08-01T01:49:27;15.00;99.90
37788;DHT22;23627;53.302;-6.362;2022-08-01T01:51:56;15.10;99.90
37788;DHT22;23627;53.302;-6.362;2022-08-01T01:54:23;15.00;99.90
37788;DHT22;23627;53.302;-6.362;2022-08-01T01:56:51;15.00;99.90
37788;DHT22;23627;53.302;-6.362;2022-08-01T01:59:25;15.00;99.90
37788;DHT22;23627;53.302;-6.362;2022-08-01T02:01:55;15.00;99.90
37788;DHT22;23627;53.302;-6.362;2022-08-01T02:04:23;15.00;99.90
37788;DHT22;23627;53.302;-6.362;2022-08-01T02:06:50;14.90;99.90
37788;DHT22;23627;53.302;-6.362;2022-08-01T02:09:19;14.90;99.90
37788;DHT22;23627;53.302;-6.362;2022-08-01T02:11:49;14.80;99.90
37788;DHT22;23627;53.302;-6.362;2022-08-01T02:14:17;14.80;99.90
37788;DHT22;23627;53.302;-6.362;2022-08-01T02:16:47;14.80;99.90
37788;DHT22;23627;53.302;-6.362;2022-08-01T02:19:14;14.70;99.90
37788;DHT22;23627;53.302;-6.362;2022-08-01T02:21:52;14.70;99.90
37788;DHT22;23627;53.302;-6.362;2022-08-01T02:24:28;14.70;99.90
37788;DHT22;23627;53.302;-6.362;2022-08-01T02:27:00;14.60;99.90
37788;DHT22;23627;53.302;-6.362;2022-08-01T02:29:52;14.70;99.90
37788;DHT22;23627;53.302;-6.362;2022-08-01T02:32:36;14.60;99.90
37788;DHT22;23627;53.302;-6.362;2022-08-01T02:35:06;14.60;99.90
37788;DHT22;23627;53.302;-6.362;2022-08-01T02:37:34;14.60;99.90
37788;DHT22;23627;53.302;-6.362;2022-08-01T02:40:02;14.50;99.90
37788;DHT22;23627;53.302;-6.362;2022-08-01T02:42:31;14.50;99.90
37788;DHT22;23627;53.302;-6.362;2022-08-01T02:45:00;14.50;99.90
37788;DHT22;23627;53.302;-6.362;2022-08-01T02:47:27;14.50;99.90
37788;DHT22;23627;53.302;-6.362;2022-08-01T02:49:55;14.50;99.90
37788;DHT22;23627;53.302;-6.362;2022-08-01T02:52:23;14.50;99.90
37788;DHT22;23627;53.302;-6.362;2022-08-01T02:54:51;14.50;99.90
37788;DHT22;23627;53.302;-6.362;2022-08-01T02:57:19;14.50;99.90
37788;DHT22;23627;53.302;-6.362;2022-08-01T02:59:47;14.50;99.90
37788;DHT22;23627;53.302;-6.362;2022-08-01T03:02:14;14.50;99.90
37788;DHT22;23627;53.302;-6.362;2022-08-01T03:04:41;14.40;99.90
37788;DHT22;23627;53.302;-6.362;2022-08-01T03:07:10;14.50;99.90
37788;DHT22;23627;53.302;-6.362;2022-08-01T03:09:41;14.50;99.90
37788;DHT22;23627;53.302;-6.362;2022-08-01T03:12:14;14.50;99.90
37788;DHT22;23627;53.302;-6.362;2022-08-01T03:14:42;14.40;99.90
37788;DHT22;23627;53.302;-6.362;2022-08-01T03:17:09;14.40;99.90
37788;DHT22;23627;53.302;-6.362;2022-08-01T03:19:36;14.50;99.90
37788;DHT22;23627;53.302;-6.362;2022-08-01T03:22:08;14.50;99.90
37788;DHT22;23627;53.302;-6.362;2022-08-01T03:24:37;14.60;99.90
37788;DHT22;23627;53.302;-6.362;2022-08-01T03:27:06;14.60;99.90
37788;DHT22;23627;53.302;-6.362;2022-08-01T03:29:32;14.60;99.90
37788;DHT22;23627;53.302;-6.362;2022-08-01T03:32:00;14.60;99.90
37788;DHT22;23627;53.302;-6.362;2022-08-01T03:34:28;14.60;99.90
37788;DHT22;23627;53.302;-6.362;2022-08-01T03:39:58;14.60;99.90
37788;DHT22;23627;53.302;-6.362;2022-08-01T03:42:35;14.60;99.90
37788;DHT22;23627;53.302;-6.362;2022-08-01T03:45:06;14.60;99.90
37788;DHT22;23627;53.302;-6.362;2022-08-01T03:47:35;14.60;99.90
37788;DHT22;23627;53.302;-6.362;2022-08-01T03:50:03;14.60;99.90
37788;DHT22;23627;53.302;-6.362;2022-08-01T03:52:30;14.60;99.90
37788;DHT22;23627;53.302;-6.362;2022-08-01T03:55:01;14.60;99.90
37788;DHT22;23627;53.302;-6.362;2022-08-01T04:00:32;14.50;99.90
37788;DHT22;23627;53.302;-6.362;2022-08-01T04:02:58;14.50;99.90
37788;DHT22;23627;53.302;-6.362;2022-08-01T04:05:24;14.40;99.90
37788;DHT22;23627;53.302;-6.362;2022-08-01T04:07:51;14.40;99.90
37788;DHT22;23627;53.302;-6.362;2022-08-01T04:10:25;14.30;99.90
37788;DHT22;23627;53.302;-6.362;2022-08-01T04:12:51;14.30;99.90
37788;DHT22;23627;53.302;-6.362;2022-08-01T04:15:17;14.30;99.90
37788;DHT22;23627;53.302;-6.362;2022-08-01T04:17:43;14.30;99.90
37788;DHT22;23627;53.302;-6.362;2022-08-01T04:20:10;14.20;99.90
37788;DHT22;23627;53.302;-6.362;2022-08-01T04:22:36;14.10;99.90
37788;DHT22;23627;53.302;-6.362;2022-08-01T04:25:07;14.00;99.90
37788;DHT22;23627;53.302;-6.362;2022-08-01T04:27:37;14.00;99.90
37788;DHT22;23627;53.302;-6.362;2022-08-01T04:30:05;13.90;99.90
37788;DHT22;23627;53.302;-6.362;2022-08-01T04:32:35;13.80;99.90
37788;DHT22;23627;53.302;-6.362;2022-08-01T04:35:04;13.80;99.90
37788;DHT22;23627;53.302;-6.362;2022-08-01T04:37:33;13.70;99.90
37788;DHT22;23627;53.302;-6.362;2022-08-01T04:40:04;13.70;99.90
37788;DHT22;23627;53.302;-6.362;2022-08-01T04:42:34;13.60;99.90
37788;DHT22;23627;53.302;-6.362;2022-08-01T04:45:01;13.70;99.90
37788;DHT22;23627;53.302;-6.362;2022-08-01T04:47:27;13.70;99.90
37788;DHT22;23627;53.302;-6.362;2022-08-01T04:49:54;13.70;99.90
37788;DHT22;23627;53.302;-6.362;2022-08-01T04:52:22;13.60;99.90
37788;DHT22;23627;53.302;-6.362;2022-08-01T04:54:48;13.50;99.90
37788;DHT22;23627;53.302;-6.362;2022-08-01T04:57:13;13.50;99.90
37788;DHT22;23627;53.302;-6.362;2022-08-01T04:59:42;13.50;99.90
37788;DHT22;23627;53.302;-6.362;2022-08-01T05:02:14;13.50;99.90
37788;DHT22;23627;53.302;-6.362;2022-08-01T05:04:41;13.50;99.90
37788;DHT22;23627;53.302;-6.362;2022-08-01T05:07:07;13.50;99.90
37788;DHT22;23627;53.302;-6.362;2022-08-01T05:09:34;13.50;99.90
37788;DHT22;23627;53.302;-6.362;2022-08-01T05:12:04;13.50;99.90
37788;DHT22;23627;53.302;-6.362;2022-08-01T05:14:31;13.50;99.90
37788;DHT22;23627;53.302;-6.362;2022-08-01T05:16:59;13.40;99.90
37788;DHT22;23627;53.302;-6.362;2022-08-01T05:19:25;13.40;99.90
37788;DHT22;23627;53.302;-6.362;2022-08-01T05:21:52;13.40;99.90
37788;DHT22;23627;53.302;-6.362;2022-08-01T05:24:18;13.40;99.90
37788;DHT22;23627;53.302;-6.362;2022-08-01T05:26:43;13.40;99.90
37788;DHT22;23627;53.302;-6.362;2022-08-01T05:29:09;13.50;99.90
37788;DHT22;23627;53.302;-6.362;2022-08-01T05:31:35;13.40;99.90
37788;DHT22;23627;53.302;-6.362;2022-08-01T05:34:01;13.50;99.90
37788;DHT22;23627;53.302;-6.362;2022-08-01T05:36:27;13.50;99.90
37788;DHT22;23627;53.302;-6.362;2022-08-01T05:38:53;13.50;99.90
37788;DHT22;23627;53.302;-6.362;2022-08-01T05:41:18;13.50;99.90
37788;DHT22;23627;53.302;-6.362;2022-08-01T05:43:44;13.70;99.90
37788;DHT22;23627;53.302;-6.362;2022-08-01T05:46:10;13.70;99.90
37788;DHT22;23627;53.302;-6.362;2022-08-01T05:48:36;13.70;99.90
37788;DHT22;23627;53.302;-6.362;2022-08-01T05:51:02;13.70;99.90
37788;DHT22;23627;53.302;-6.362;2022-08-01T05:53:28;13.60;99.90
37788;DHT22;23627;53.302;-6.362;2022-08-01T05:55:54;13.70;99.90
37788;DHT22;23627;53.302;-6.362;2022-08-01T05:58:20;13.80;99.90
37788;DHT22;23627;53.302;-6.362;2022-08-01T06:00:45;13.90;99.90
37788;DHT22;23627;53.302;-6.362;2022-08-01T06:03:11;14.10;99.90
37788;DHT22;23627;53.302;-6.362;2022-08-01T06:05:37;14.10;99.90
37788;DHT22;23627;53.302;-6.362;2022-08-01T06:08:03;14.20;99.90
37788;DHT22;23627;53.302;-6.362;2022-08-01T06:10:29;14.30;99.90
37788;DHT22;23627;53.302;-6.362;2022-08-01T06:12:55;14.30;99.90
37788;DHT22;23627;53.302;-6.362;2022-08-01T06:15:21;14.40;99.90
37788;DHT22;23627;53.302;-6.362;2022-08-01T06:17:46;14.40;99.90
37788;DHT22;23627;53.302;-6.362;2022-08-01T06:20:12;14.30;99.90
37788;DHT22;23627;53.302;-6.362;2022-08-01T06:22:38;14.40;99.90
37788;DHT22;23627;53.302;-6.362;2022-08-01T06:25:04;14.40;99.90
37788;DHT22;23627;53.302;-6.362;2022-08-01T06:27:30;14.40;99.90
37788;DHT22;23627;53.302;-6.362;2022-08-01T06:29:59;14.40;99.90
37788;DHT22;23627;53.302;-6.362;2022-08-01T06:32:24;14.40;99.90
37788;DHT22;23627;53.302;-6.362;2022-08-01T06:34:52;14.40;99.90
37788;DHT22;23627;53.302;-6.362;2022-08-01T06:37:17;14.50;99.90
37788;DHT22;23627;53.302;-6.362;2022-08-01T06:39:43;14.50;99.90
37788;DHT22;23627;53.302;-6.362;2022-08-01T06:42:09;14.60;99.90
37788;DHT22;23627;53.302;-6.362;2022-08-01T06:44:35;14.70;99.90
37788;DHT22;23627;53.302;-6.362;2022-08-01T06:47:01;14.70;99.90
37788;DHT22;23627;53.302;-6.362;2022-08-01T06:49:27;14.70;99.90
37788;DHT22;23627;53.302;-6.362;2022-08-01T06:51:53;14.70;99.90
37788;DHT22;23627;53.302;-6.362;2022-08-01T06:54:19;14.60;99.90
37788;DHT22;23627;53.302;-6.362;2022-08-01T06:56:45;14.50;99.90
37788;DHT22;23627;53.302;-6.362;2022-08-01T06:59:11;14.50;99.90
37788;DHT22;23627;53.302;-6.362;2022-08-01T07:01:37;14.60;99.90
37788;DHT22;23627;53.302;-6.362;2022-08-01T07:04:03;14.80;99.90
37788;DHT22;23627;53.302;-6.362;2022-08-01T07:06:29;14.80;99.90
37788;DHT22;23627;53.302;-6.362;2022-08-01T07:08:54;14.90;99.90
37788;DHT22;23627;53.302;-6.362;2022-08-01T07:11:21;15.00;99.90
37788;DHT22;23627;53.302;-6.362;2022-08-01T07:13:47;15.00;99.90
37788;DHT22;23627;53.302;-6.362;2022-08-01T07:16:14;15.10;99.90
37788;DHT22;23627;53.302;-6.362;2022-08-01T07:18:41;15.20;99.90
37788;DHT22;23627;53.302;-6.362;2022-08-01T07:21:07;15.20;99.90
37788;DHT22;23627;53.302;-6.362;2022-08-01T07:23:33;15.20;99.90
37788;DHT22;23627;53.302;-6.362;2022-08-01T07:25:59;15.30;99.90
37788;DHT22;23627;53.302;-6.362;2022-08-01T07:28:27;15.40;99.90
37788;DHT22;23627;53.302;-6.362;2022-08-01T07:30:53;15.60;99.90
37788;DHT22;23627;53.302;-6.362;2022-08-01T07:33:19;15.90;99.90
37788;DHT22;23627;53.302;-6.362;2022-08-01T07:35:45;16.30;99.90
37788;DHT22;23627;53.302;-6.362;2022-08-01T07:38:10;16.80;99.90
37788;DHT22;23627;53.302;-6.362;2022-08-01T07:40:36;17.20;99.90
37788;DHT22;23627;53.302;-6.362;2022-08-01T07:43:02;17.60;99.90
37788;DHT22;23627;53.302;-6.362;2022-08-01T07:45:28;18.00;99.90
37788;DHT22;23627;53.302;-6.362;2022-08-01T07:47:54;18.40;99.90
37788;DHT22;23627;53.302;-6.362;2022-08-01T07:50:20;18.70;99.90
37788;DHT22;23627;53.302;-6.362;2022-08-01T07:52:46;18.90;99.90
37788;DHT22;23627;53.302;-6.362;2022-08-01T07:55:12;19.10;99.90
37788;DHT22;23627;53.302;-6.362;2022-08-01T07:57:38;19.30;99.90
37788;DHT22;23627;53.302;-6.362;2022-08-01T08:00:05;19.60;99.90
37788;DHT22;23627;53.302;-6.362;2022-08-01T08:02:32;19.80;99.90
37788;DHT22;23627;53.302;-6.362;2022-08-01T08:04:58;20.00;99.90
37788;DHT22;23627;53.302;-6.362;2022-08-01T08:07:24;20.30;99.90
37788;DHT22;23627;53.302;-6.362;2022-08-01T08:09:49;20.40;99.90
37788;DHT22;23627;53.302;-6.362;2022-08-01T08:12:15;20.60;99.90
37788;DHT22;23627;53.302;-6.362;2022-08-01T08:14:41;20.80;99.90
37788;DHT22;23627;53.302;-6.362;2022-08-01T08:17:07;21.00;99.90
37788;DHT22;23627;53.302;-6.362;2022-08-01T08:19:33;21.20;99.90
37788;DHT22;23627;53.302;-6.362;2022-08-01T08:22:01;21.40;99.90
37788;DHT22;23627;53.302;-6.362;2022-08-01T08:24:27;21.50;99.90
37788;DHT22;23627;53.302;-6.362;2022-08-01T08:26:55;21.70;99.90
37788;DHT22;23627;53.302;-6.362;2022-08-01T08:29:22;21.90;99.90
37788;DHT22;23627;53.302;-6.362;2022-08-01T08:31:48;22.00;99.90
37788;DHT22;23627;53.302;-6.362;2022-08-01T08:34:14;22.00;99.90
37788;DHT22;23627;53.302;-6.362;2022-08-01T08:36:40;22.10;99.90
37788;DHT22;23627;53.302;-6.362;2022-08-01T08:39:06;22.20;99.90
37788;DHT22;23627;53.302;-6.362;2022-08-01T08:41:33;22.30;99.90
37788;DHT22;23627;53.302;-6.362;2022-08-01T08:44:01;22.40;99.90
37788;DHT22;23627;53.302;-6.362;2022-08-01T08:46:27;22.60;99.90
37788;DHT22;23627;53.302;-6.362;2022-08-01T08:48:54;22.80;99.90
37788;DHT22;23627;53.302;-6.362;2022-08-01T08:51:21;23.00;99.90
37788;DHT22;23627;53.302;-6.362;2022-08-01T08:53:49;23.00;99.90
37788;DHT22;23627;53.302;-6.362;2022-08-01T08:56:18;22.90;99.90
37788;DHT22;23627;53.302;-6.362;2022-08-01T08:58:47;22.90;99.90
37788;DHT22;23627;53.302;-6.362;2022-08-01T09:01:13;22.70;99.90
37788;DHT22;23627;53.302;-6.362;2022-08-01T09:03:40;22.80;99.90
37788;DHT22;23627;53.302;-6.362;2022-08-01T09:06:06;22.80;99.90
37788;DHT22;23627;53.302;-6.362;2022-08-01T09:08:33;22.90;99.90
37788;DHT22;23627;53.302;-6.362;2022-08-01T09:10:59;23.10;99.90
37788;DHT22;23627;53.302;-6.362;2022-08-01T09:13:25;23.10;99.90
37788;DHT22;23627;53.302;-6.362;2022-08-01T09:15:52;23.10;99.90
37788;DHT22;23627;53.302;-6.362;2022-08-01T09:18:40;23.30;99.90
37788;DHT22;23627;53.302;-6.362;2022-08-01T09:25:58;22.90;99.90
37788;DHT22;23627;53.302;-6.362;2022-08-01T09:28:29;22.70;99.90
37788;DHT22;23627;53.302;-6.362;2022-08-01T09:30:56;22.70;99.90
37788;DHT22;23627;53.302;-6.362;2022-08-01T09:33:22;22.70;99.90
37788;DHT22;23627;53.302;-6.362;2022-08-01T09:35:55;22.80;99.90
37788;DHT22;23627;53.302;-6.362;2022-08-01T09:38:25;22.90;99.90
37788;DHT22;23627;53.302;-6.362;2022-08-01T09:40:55;22.90;99.90
37788;DHT22;23627;53.302;-6.362;2022-08-01T09:43:24;22.90;99.90
37788;DHT22;23627;53.302;-6.362;2022-08-01T09:45:51;22.90;99.90
37788;DHT22;23627;53.302;-6.362;2022-08-01T09:48:18;23.00;99.90
37788;DHT22;23627;53.302;-6.362;2022-08-01T09:50:46;23.00;99.90
37788;DHT22;23627;53.302;-6.362;2022-08-01T09:53:13;23.00;99.90
37788;DHT22;23627;53.302;-6.362;2022-08-01T09:55:40;23.00;99.90
37788;DHT22;23627;53.302;-6.362;2022-08-01T09:58:07;23.10;99.90
37788;DHT22;23627;53.302;-6.362;2022-08-01T10:00:34;23.10;99.90
37788;DHT22;23627;53.302;-6.362;2022-08-01T10:05:45;23.00;99.90
37788;DHT22;23627;53.302;-6.362;2022-08-01T10:08:13;23.10;99.90
37788;DHT22;23627;53.302;-6.362;2022-08-01T10:10:39;23.20;99.90
37788;DHT22;23627;53.302;-6.362;2022-08-01T10:13:06;23.40;99.90
37788;DHT22;23627;53.302;-6.362;2022-08-01T10:15:33;23.50;99.90
37788;DHT22;23627;53.302;-6.362;2022-08-01T10:18:01;23.40;99.90
37788;DHT22;23627;53.302;-6.362;2022-08-01T10:20:30;23.50;99.90
37788;DHT22;23627;53.302;-6.362;2022-08-01T10:22:59;23.40;99.90
37788;DHT22;23627;53.302;-6.362;2022-08-01T10:25:28;23.40;99.90
37788;DHT22;23627;53.302;-6.362;2022-08-01T10:27:54;23.40;99.90
37788;DHT22;23627;53.302;-6.362;2022-08-01T10:30:21;23.30;99.90
37788;DHT22;23627;53.302;-6.362;2022-08-01T10:32:47;23.30;99.90
37788;DHT22;23627;53.302;-6.362;2022-08-01T10:35:13;23.30;99.90
37788;DHT22;23627;53.302;-6.362;2022-08-01T10:37:46;23.20;99.90
37788;DHT22;23627;53.302;-6.362;2022-08-01T10:40:15;23.10;99.90
37788;DHT22;23627;53.302;-6.362;2022-08-01T10:42:43;23.10;99.90
37788;DHT22;23627;53.302;-6.362;2022-08-01T10:45:13;23.10;99.90
37788;DHT22;23627;53.302;-6.362;2022-08-01T10:47:51;23.20;99.90
37788;DHT22;23627;53.302;-6.362;2022-08-01T10:50:31;23.30;99.90
37788;DHT22;23627;53.302;-6.362;2022-08-01T10:53:25;23.30;99.90
37788;DHT22;23627;53.302;-6.362;2022-08-01T10:56:00;23.30;99.90
37788;DHT22;23627;53.302;-6.362;2022-08-01T11:03:44;23.30;99.90
37788;DHT22;23627;53.302;-6.362;2022-08-01T11:06:26;23.10;99.90
37788;DHT22;23627;53.302;-6.362;2022-08-01T11:08:54;23.10;99.90
37788;DHT22;23627;53.302;-6.362;2022-08-01T11:11:21;23.10;99.90
37788;DHT22;23627;53.302;-6.362;2022-08-01T11:16:35;23.20;99.90
37788;DHT22;23627;53.302;-6.362;2022-08-01T11:19:03;23.20;99.90
37788;DHT22;23627;53.302;-6.362;2022-08-01T11:27:45;22.80;99.90
37788;DHT22;23627;53.302;-6.362;2022-08-01T11:32:47;22.70;99.90
37788;DHT22;23627;53.302;-6.362;2022-08-01T11:35:14;22.70;99.90
37788;DHT22;23627;53.302;-6.362;2022-08-01T11:37:40;22.60;99.90
37788;DHT22;23627;53.302;-6.362;2022-08-01T11:40:24;22.50;99.90
37788;DHT22;23627;53.302;-6.362;2022-08-01T11:45:51;22.30;99.90
37788;DHT22;23627;53.302;-6.362;2022-08-01T11:48:23;22.10;99.90
37788;DHT22;23627;53.302;-6.362;2022-08-01T11:50:54;22.10;99.90
37788;DHT22;23627;53.302;-6.362;2022-08-01T11:53:21;22.10;99.90
37788;DHT22;23627;53.302;-6.362;2022-08-01T11:55:52;22.10;99.90
37788;DHT22;23627;53.302;-6.362;2022-08-01T11:58:23;22.00;99.90
37788;DHT22;23627;53.302;-6.362;2022-08-01T12:00:54;21.90;99.90
37788;DHT22;23627;53.302;-6.362;2022-08-01T12:03:31;21.80;99.90
37788;DHT22;23627;53.302;-6.362;2022-08-01T12:05:58;21.80;99.90
37788;DHT22;23627;53.302;-6.362;2022-08-01T12:08:26;21.80;99.90
37788;DHT22;23627;53.302;-6.362;2022-08-01T12:10:52;21.70;99.90
37788;DHT22;23627;53.302;-6.362;2022-08-01T12:13:18;21.80;99.90
37788;DHT22;23627;53.302;-6.362;2022-08-01T12:15:45;21.70;99.90
37788;DHT22;23627;53.302;-6.362;2022-08-01T12:18:11;21.70;99.90
37788;DHT22;23627;53.302;-6.362;2022-08-01T12:20:38;21.70;99.90
37788;DHT22;23627;53.302;-6.362;2022-08-01T12:23:07;21.70;99.90
37788;DHT22;23627;53.302;-6.362;2022-08-01T12:25:34;21.60;99.90
37788;DHT22;23627;53.302;-6.362;2022-08-01T12:28:02;21.60;99.90
37788;DHT22;23627;53.302;-6.362;2022-08-01T12:30:29;21.60;99.90
37788;DHT22;23627;53.302;-6.362;2022-08-01T12:33:05;21.60;99.90
37788;DHT22;23627;53.302;-6.362;2022-08-01T12:35:32;21.60;99.90
37788;DHT22;23627;53.302;-6.362;2022-08-01T12:38:04;21.50;99.90
37788;DHT22;23627;53.302;-6.362;2022-08-01T12:40:33;21.60;99.90
37788;DHT22;23627;53.302;-6.362;2022-08-01T12:43:04;21.70;99.90
37788;DHT22;23627;53.302;-6.362;2022-08-01T12:45:37;21.80;99.90
37788;DHT22;23627;53.302;-6.362;2022-08-01T12:48:12;21.80;99.90
37788;DHT22;23627;53.302;-6.362;2022-08-01T12:50:40;22.00;99.90
37788;DHT22;23627;53.302;-6.362;2022-08-01T12:53:08;22.10;99.90
37788;DHT22;23627;53.302;-6.362;2022-08-01T12:55:50;22.10;99.90
37788;DHT22;23627;53.302;-6.362;2022-08-01T12:58:17;22.00;99.90
37788;DHT22;23627;53.302;-6.362;2022-08-01T13:00:46;21.90;99.90
37788;DHT22;23627;53.302;-6.362;2022-08-01T13:03:19;21.90;99.90
37788;DHT22;23627;53.302;-6.362;2022-08-01T13:05:53;22.00;99.90
37788;DHT22;23627;53.302;-6.362;2022-08-01T13:11:15;22.10;99.90
37788;DHT22;23627;53.302;-6.362;2022-08-01T13:13:43;22.10;99.90
37788;DHT22;23627;53.302;-6.362;2022-08-01T13:16:10;22.10;99.90
37788;DHT22;23627;53.302;-6.362;2022-08-01T13:18:36;22.00;99.90
37788;DHT22;23627;53.302;-6.362;2022-08-01T13:21:29;21.90;99.90
37788;DHT22;23627;53.302;-6.362;2022-08-01T13:26:53;21.70;99.90
37788;DHT22;23627;53.302;-6.362;2022-08-01T13:29:31;21.60;99.90
37788;DHT22;23627;53.302;-6.362;2022-08-01T13:31:58;21.50;99.90
37788;DHT22;23627;53.302;-6.362;2022-08-01T13:34:32;21.50;99.90
37788;DHT22;23627;53.302;-6.362;2022-08-01T13:36:59;21.40;99.90
37788;DHT22;23627;53.302;-6.362;2022-08-01T13:39:30;21.30;99.90
37788;DHT22;23627;53.302;-6.362;2022-08-01T13:42:10;21.30;99.90
37788;DHT22;23627;53.302;-6.362;2022-08-01T13:44:36;21.40;99.90
37788;DHT22;23627;53.302;-6.362;2022-08-01T13:47:03;21.30;99.90
37788;DHT22;23627;53.302;-6.362;2022-08-01T13:49:29;21.20;99.90
37788;DHT22;23627;53.302;-6.362;2022-08-01T13:51:55;21.10;99.90
37788;DHT22;23627;53.302;-6.362;2022-08-01T13:54:21;21.10;99.90
37788;DHT22;23627;53.302;-6.362;2022-08-01T13:56:46;21.00;99.90
37788;DHT22;23627;53.302;-6.362;2022-08-01T13:59:12;21.00;99.90
37788;DHT22;23627;53.302;-6.362;2022-08-01T14:01:38;21.00;99.90
37788;DHT22;23627;53.302;-6.362;2022-08-01T14:04:04;21.00;99.90
37788;DHT22;23627;53.302;-6.362;2022-08-01T14:06:34;20.90;99.90
37788;DHT22;23627;53.302;-6.362;2022-08-01T14:09:01;20.90;99.90
37788;DHT22;23627;53.302;-6.362;2022-08-01T14:11:27;20.80;99.90
37788;DHT22;23627;53.302;-6.362;2022-08-01T14:13:53;20.70;99.90
37788;DHT22;23627;53.302;-6.362;2022-08-01T14:16:19;20.60;99.90
37788;DHT22;23627;53.302;-6.362;2022-08-01T14:18:45;20.60;99.90
37788;DHT22;23627;53.302;-6.362;2022-08-01T14:21:12;20.60;99.90
37788;DHT22;23627;53.302;-6.362;2022-08-01T14:23:41;20.50;99.90
37788;DHT22;23627;53.302;-6.362;2022-08-01T14:26:14;20.50;99.90
37788;DHT22;23627;53.302;-6.362;2022-08-01T14:28:40;20.40;99.90
37788;DHT22;23627;53.302;-6.362;2022-08-01T14:31:10;20.50;99.90
37788;DHT22;23627;53.302;-6.362;2022-08-01T14:33:42;20.40;99.90
37788;DHT22;23627;53.302;-6.362;2022-08-01T14:36:08;20.30;99.90
37788;DHT22;23627;53.302;-6.362;2022-08-01T14:38:34;20.30;99.90
37788;DHT22;23627;53.302;-6.362;2022-08-01T14:41:00;20.20;99.90
37788;DHT22;23627;53.302;-6.362;2022-08-01T14:43:28;20.20;99.90
37788;DHT22;23627;53.302;-6.362;2022-08-01T14:45:57;20.20;99.90
37788;DHT22;23627;53.302;-6.362;2022-08-01T14:48:22;20.30;99.90
37788;DHT22;23627;53.302;-6.362;2022-08-01T14:50:48;20.30;99.90
37788;DHT22;23627;53.302;-6.362;2022-08-01T14:53:15;20.20;99.90
37788;DHT22;23627;53.302;-6.362;2022-08-01T14:55:41;20.20;99.90
37788;DHT22;23627;53.302;-6.362;2022-08-01T14:58:07;20.10;99.90
37788;DHT22;23627;53.302;-6.362;2022-08-01T15:00:33;20.10;99.90
37788;DHT22;23627;53.302;-6.362;2022-08-01T15:02:59;20.00;99.90
37788;DHT22;23627;53.302;-6.362;2022-08-01T15:05:25;20.00;99.90
37788;DHT22;23627;53.302;-6.362;2022-08-01T15:07:51;20.00;99.90
37788;DHT22;23627;53.302;-6.362;2022-08-01T15:10:17;20.00;99.90
37788;DHT22;23627;53.302;-6.362;2022-08-01T15:12:43;20.10;99.90
37788;DHT22;23627;53.302;-6.362;2022-08-01T15:15:09;20.10;99.90
37788;DHT22;23627;53.302;-6.362;2022-08-01T15:17:35;20.00;99.90
37788;DHT22;23627;53.302;-6.362;2022-08-01T15:20:04;20.10;99.90
37788;DHT22;23627;53.302;-6.362;2022-08-01T15:22:31;20.10;99.90
37788;DHT22;23627;53.302;-6.362;2022-08-01T15:24:59;20.10;99.90
37788;DHT22;23627;53.302;-6.362;2022-08-01T15:27:26;20.10;99.90
37788;DHT22;23627;53.302;-6.362;2022-08-01T15:29:52;20.10;99.90
37788;DHT22;23627;53.302;-6.362;2022-08-01T15:32:18;20.10;99.90
37788;DHT22;23627;53.302;-6.362;2022-08-01T15:34:44;20.10;99.90
37788;DHT22;23627;53.302;-6.362;2022-08-01T15:37:13;20.10;99.90
37788;DHT22;23627;53.302;-6.362;2022-08-01T15:39:40;20.10;99.90
37788;DHT22;23627;53.302;-6.362;2022-08-01T15:42:12;20.20;99.90
37788;DHT22;23627;53.302;-6.362;2022-08-01T15:44:38;20.20;99.90
37788;DHT22;23627;53.302;-6.362;2022-08-01T15:47:05;20.10;99.90
37788;DHT22;23627;53.302;-6.362;2022-08-01T15:49:32;20.10;99.90
37788;DHT22;23627;53.302;-6.362;2022-08-01T15:52:02;20.10;99.90
37788;DHT22;23627;53.302;-6.362;2022-08-01T15:54:28;20.20;99.90
37788;DHT22;23627;53.302;-6.362;2022-08-01T15:56:54;20.20;99.90
37788;DHT22;23627;53.302;-6.362;2022-08-01T15:59:21;20.20;99.90
37788;DHT22;23627;53.302;-6.362;2022-08-01T16:01:47;20.20;99.90
37788;DHT22;23627;53.302;-6.362;2022-08-01T16:04:15;20.20;99.90
37788;DHT22;23627;53.302;-6.362;2022-08-01T16:06:42;20.30;99.90